Time;durP1;ratioP1;P1;durP2;ratioP2;P2;SDS_P1;SDS_P2;PMS_P1;PMS_P2;Temp;Humidity;BMP_temperature;BMP_pressure;BME280_temperature;BME280_humidity;BME280_pressure;Samples;Min_cycle;Max_cycle;Signal;HPM_P1;HPM_P2
2021/09/11 00:00:24;;;;;;;;;;;19.40;1.00;;;;;;5111137;28;19920;-70
2021/09/11 00:02:50;;;;;;;;;;;19.30;1.00;;;;;;5091032;28;20533;-70
2021/09/11 00:05:16;;;;;;;;;;;19.30;1.00;;;;;;5110931;28;19908;-70
2021/09/11 00:07:41;;;;;;;;;;;19.20;1.00;;;;;;5112156;28;19947;-69
2021/09/11 00:10:08;;;;;;;;;;;19.20;1.00;;;;;;5132165;27;20342;-69
2021/09/11 00:12:35;;;;;;;;;;;19.20;1.00;;;;;;5131099;27;19922;-70
2021/09/11 00:15:05;;;;;;;;;;;19.20;1.00;;;;;;5112131;27;20324;-69
2021/09/11 00:17:31;;;;;;;;;;;19.10;1.00;;;;;;5111352;28;19908;-70
2021/09/11 00:19:56;;;;;;;;;;;19.10;1.00;;;;;;5110688;28;20225;-70
2021/09/11 00:22:22;;;;;;;;;;;19.10;1.00;;;;;;5110495;28;19908;-69
2021/09/11 00:24:47;;;;;;;;;;;19.10;1.00;;;;;;5109845;28;19908;-69
2021/09/11 00:27:14;;;;;;;;;;;19.10;1.00;;;;;;5111418;28;19915;-70
2021/09/11 00:29:39;;;;;;;;;;;19.10;1.00;;;;;;5110498;28;19926;-70
2021/09/11 00:32:05;;;;;;;;;;;19.10;1.00;;;;;;5110013;28;19937;-70
2021/09/11 00:34:31;;;;;;;;;;;19.10;1.00;;;;;;5109760;28;20019;-70
2021/09/11 00:36:57;;;;;;;;;;;19.00;1.00;;;;;;5111302;28;19930;-70
2021/09/11 00:39:23;;;;;;;;;;;19.00;1.00;;;;;;5092372;28;19915;-70
2021/09/11 00:41:52;;;;;;;;;;;19.00;1.00;;;;;;5110651;28;19922;-69
2021/09/11 00:44:17;;;;;;;;;;;18.90;1.00;;;;;;5110404;28;19912;-70
2021/09/11 00:46:43;;;;;;;;;;;18.90;1.00;;;;;;5110588;28;19912;-70
2021/09/11 00:49:08;;;;;;;;;;;18.90;1.00;;;;;;5145764;22;20290;-72
2021/09/11 00:51:35;;;;;;;;;;;18.90;1.00;;;;;;5110356;28;20282;-72
2021/09/11 00:54:01;;;;;;;;;;;18.90;1.00;;;;;;5109454;28;19946;-73
2021/09/11 00:56:27;;;;;;;;;;;18.90;1.00;;;;;;5109823;28;20379;-73
2021/09/11 00:58:52;;;;;;;;;;;18.90;1.00;;;;;;5091090;28;19915;-72
2021/09/11 01:01:18;;;;;;;;;;;18.90;1.00;;;;;;5101101;28;19919;-72
2021/09/11 01:03:43;;;;;;;;;;;18.90;1.00;;;;;;5068606;28;20007;-72
2021/09/11 01:06:09;;;;;;;;;;;18.90;1.00;;;;;;5068366;28;19909;-73
2021/09/11 01:08:35;;;;;;;;;;;18.90;1.00;;;;;;5075532;28;19951;-73
2021/09/11 01:11:01;;;;;;;;;;;18.90;1.00;;;;;;5088833;28;19915;-73
2021/09/11 01:13:27;;;;;;;;;;;18.90;1.00;;;;;;5070126;28;19908;-72
2021/09/11 01:15:56;;;;;;;;;;;18.90;1.00;;;;;;5088299;28;19998;-72
2021/09/11 01:18:22;;;;;;;;;;;18.90;1.00;;;;;;5089125;28;19911;-72
2021/09/11 01:20:47;;;;;;;;;;;18.90;1.00;;;;;;5087969;28;20019;-73
2021/09/11 01:23:13;;;;;;;;;;;19.00;1.00;;;;;;5088365;28;19909;-73
2021/09/11 01:25:38;;;;;;;;;;;19.00;1.00;;;;;;5088969;28;19943;-73
2021/09/11 01:28:04;;;;;;;;;;;19.00;1.00;;;;;;5088700;28;19908;-72
2021/09/11 01:30:29;;;;;;;;;;;19.00;1.00;;;;;;5088188;28;19923;-73
2021/09/11 01:32:55;;;;;;;;;;;19.00;1.00;;;;;;5088088;28;20894;-73
2021/09/11 01:35:20;;;;;;;;;;;18.90;1.00;;;;;;5088344;28;19908;-73
2021/09/11 01:37:46;;;;;;;;;;;18.90;1.00;;;;;;5088637;28;19912;-72
2021/09/11 01:40:12;;;;;;;;;;;18.90;1.00;;;;;;5088977;28;19912;-73
2021/09/11 01:42:38;;;;;;;;;;;18.90;1.00;;;;;;5087561;28;19930;-72
2021/09/11 01:45:10;;;;;;;;;;;18.80;1.00;;;;;;5089048;28;20018;-72
2021/09/11 01:47:37;;;;;;;;;;;18.80;1.00;;;;;;5088561;28;20444;-72
2021/09/11 01:50:03;;;;;;;;;;;18.80;1.00;;;;;;5087824;28;19920;-72
2021/09/11 01:52:28;;;;;;;;;;;18.80;1.00;;;;;;5087940;28;20002;-72
2021/09/11 01:54:54;;;;;;;;;;;18.70;1.00;;;;;;5089129;28;20031;-73
2021/09/11 01:57:19;;;;;;;;;;;18.70;1.00;;;;;;5109312;28;20382;-73
2021/09/11 01:59:45;;;;;;;;;;;18.70;1.00;;;;;;5107983;28;19919;-72
2021/09/11 02:02:11;;;;;;;;;;;18.70;1.00;;;;;;5108108;28;20388;-72
2021/09/11 02:04:37;;;;;;;;;;;18.60;1.00;;;;;;5107922;28;19911;-73
2021/09/11 02:07:03;;;;;;;;;;;18.50;1.00;;;;;;5108444;28;20633;-73
2021/09/11 02:09:28;;;;;;;;;;;18.50;1.00;;;;;;5093584;28;19915;-73
2021/09/11 02:11:54;;;;;;;;;;;18.40;1.00;;;;;;5087720;28;19908;-73
2021/09/11 02:14:20;;;;;;;;;;;18.40;1.00;;;;;;5087730;28;19908;-72
2021/09/11 02:16:45;;;;;;;;;;;18.40;1.00;;;;;;5087795;28;19908;-72
2021/09/11 02:19:11;;;;;;;;;;;18.40;1.00;;;;;;5087105;28;19946;-72
2021/09/11 02:21:36;;;;;;;;;;;18.40;1.00;;;;;;5088120;28;19916;-73
2021/09/11 02:24:02;;;;;;;;;;;18.30;1.00;;;;;;5087452;28;19940;-72
2021/09/11 02:26:27;;;;;;;;;;;18.30;1.00;;;;;;5088291;28;20315;-72
2021/09/11 02:28:53;;;;;;;;;;;18.30;1.00;;;;;;5087371;28;19912;-72
2021/09/11 02:31:19;;;;;;;;;;;18.30;1.00;;;;;;5087562;28;19908;-73
2021/09/11 02:33:45;;;;;;;;;;;18.30;1.00;;;;;;5088062;28;20007;-73
2021/09/11 02:36:10;;;;;;;;;;;18.30;1.00;;;;;;5087284;28;20006;-72
2021/09/11 02:38:36;;;;;;;;;;;18.30;1.00;;;;;;5088315;28;20004;-72
2021/09/11 02:41:02;;;;;;;;;;;18.30;1.00;;;;;;5087862;28;20485;-71
2021/09/11 02:43:27;;;;;;;;;;;18.20;1.00;;;;;;5087059;28;20273;-72
2021/09/11 02:45:53;;;;;;;;;;;18.20;1.00;;;;;;5087721;28;19908;-72
2021/09/11 02:48:18;;;;;;;;;;;18.10;1.00;;;;;;5089472;28;19915;-72
2021/09/11 02:50:43;;;;;;;;;;;18.10;1.00;;;;;;5090690;28;19916;-72
2021/09/11 02:53:09;;;;;;;;;;;18.10;1.00;;;;;;5090873;28;20033;-72
2021/09/11 02:55:35;;;;;;;;;;;18.10;1.00;;;;;;5091642;28;19912;-72
2021/09/11 02:58:00;;;;;;;;;;;18.00;1.00;;;;;;5091359;28;20279;-72
2021/09/11 03:00:26;;;;;;;;;;;18.00;1.00;;;;;;5091133;28;20284;-72
2021/09/11 03:02:51;;;;;;;;;;;17.90;1.00;;;;;;5090479;28;19908;-72
2021/09/11 03:05:16;;;;;;;;;;;17.90;1.00;;;;;;5089999;28;20380;-72
2021/09/11 03:07:42;;;;;;;;;;;17.80;1.00;;;;;;5091783;28;19908;-72
2021/09/11 03:10:08;;;;;;;;;;;17.80;1.00;;;;;;5091375;28;20311;-73
2021/09/11 03:12:33;;;;;;;;;;;17.70;1.00;;;;;;5072066;28;20000;-72
2021/09/11 03:14:59;;;;;;;;;;;17.70;1.00;;;;;;5091401;28;19916;-72
2021/09/11 03:17:24;;;;;;;;;;;17.70;1.00;;;;;;5090928;28;19981;-72
2021/09/11 03:19:50;;;;;;;;;;;17.70;1.00;;;;;;5090429;28;20513;-72
2021/09/11 03:22:15;;;;;;;;;;;17.70;1.00;;;;;;5090742;28;19987;-72
2021/09/11 03:24:41;;;;;;;;;;;17.70;1.00;;;;;;5091270;28;19930;-71
2021/09/11 03:27:06;;;;;;;;;;;17.60;1.00;;;;;;5091018;28;20183;-72
2021/09/11 03:29:32;;;;;;;;;;;17.60;1.00;;;;;;5090484;28;19928;-72
2021/09/11 03:31:57;;;;;;;;;;;17.60;1.00;;;;;;5090256;28;19981;-72
2021/09/11 03:34:23;;;;;;;;;;;17.60;1.00;;;;;;5090216;28;19930;-73
2021/09/11 03:36:48;;;;;;;;;;;17.60;1.00;;;;;;5091302;28;20010;-72
2021/09/11 03:39:14;;;;;;;;;;;17.60;1.00;;;;;;5090927;28;20392;-72
2021/09/11 03:41:39;;;;;;;;;;;17.60;1.00;;;;;;5090769;28;19915;-72
2021/09/11 03:44:05;;;;;;;;;;;17.60;1.00;;;;;;5089736;28;19935;-72
2021/09/11 03:46:30;;;;;;;;;;;17.60;1.00;;;;;;5090660;28;19923;-72
2021/09/11 03:48:56;;;;;;;;;;;17.50;1.00;;;;;;5089486;28;19912;-72
2021/09/11 03:51:21;;;;;;;;;;;17.50;1.00;;;;;;5090837;28;19985;-73
2021/09/11 03:53:46;;;;;;;;;;;17.40;1.00;;;;;;5089328;28;19912;-71
2021/09/11 03:56:12;;;;;;;;;;;17.50;1.00;;;;;;5090363;28;19908;-73
2021/09/11 03:58:37;;;;;;;;;;;17.40;1.00;;;;;;5090175;28;19951;-73
2021/09/11 04:01:04;;;;;;;;;;;17.40;1.00;;;;;;5090031;28;20203;-73
2021/09/11 04:03:29;;;;;;;;;;;17.40;1.00;;;;;;5089629;28;19908;-73
2021/09/11 04:05:55;;;;;;;;;;;17.40;1.00;;;;;;5089396;28;20029;-73
2021/09/11 04:08:20;;;;;;;;;;;17.40;1.00;;;;;;5090763;28;19908;-71
2021/09/11 04:10:46;;;;;;;;;;;17.30;1.00;;;;;;5090203;28;19920;-72
2021/09/11 04:13:11;;;;;;;;;;;17.30;1.00;;;;;;5089428;28;20389;-72
2021/09/11 04:15:37;;;;;;;;;;;17.30;1.00;;;;;;5089704;28;19922;-72
2021/09/11 04:18:02;;;;;;;;;;;17.30;1.00;;;;;;5090148;28;19953;-71
2021/09/11 04:20:28;;;;;;;;;;;17.30;1.00;;;;;;5071035;28;20299;-72
2021/09/11 04:22:53;;;;;;;;;;;17.30;1.00;;;;;;5089805;28;19915;-73
2021/09/11 04:25:19;;;;;;;;;;;17.30;1.00;;;;;;5089803;28;19969;-72
2021/09/11 04:27:44;;;;;;;;;;;17.30;1.00;;;;;;5089614;28;20419;-71
2021/09/11 04:30:10;;;;;;;;;;;17.30;1.00;;;;;;5089411;28;20049;-73
2021/09/11 04:32:36;;;;;;;;;;;17.30;1.00;;;;;;5088749;28;19947;-73
2021/09/11 04:35:02;;;;;;;;;;;17.30;1.00;;;;;;5089312;28;20411;-72
2021/09/11 04:37:28;;;;;;;;;;;17.30;1.00;;;;;;5090326;28;20003;-72
2021/09/11 04:39:54;;;;;;;;;;;17.30;1.00;;;;;;5089530;28;19958;-72
2021/09/11 04:42:20;;;;;;;;;;;17.30;1.00;;;;;;5089618;28;19916;-72
2021/09/11 04:44:45;;;;;;;;;;;17.30;1.00;;;;;;5089676;28;19908;-72
2021/09/11 04:47:11;;;;;;;;;;;17.30;1.00;;;;;;5089658;28;19919;-72
2021/09/11 04:49:36;;;;;;;;;;;17.30;1.00;;;;;;5083230;28;19925;-73
2021/09/11 04:52:02;;;;;;;;;;;17.30;1.00;;;;;;5091569;28;19987;-72
2021/09/11 04:54:27;;;;;;;;;;;17.30;1.00;;;;;;5099403;28;19908;-72
2021/09/11 04:56:53;;;;;;;;;;;17.30;1.00;;;;;;5119930;28;19976;-72
2021/09/11 04:59:18;;;;;;;;;;;17.20;1.00;;;;;;5121948;28;20083;-73
2021/09/11 05:01:44;;;;;;;;;;;17.20;1.00;;;;;;5122086;28;19912;-73
2021/09/11 05:04:09;;;;;;;;;;;17.20;1.00;;;;;;5120160;28;20358;-72
2021/09/11 05:06:35;;;;;;;;;;;17.20;1.00;;;;;;5121957;28;19931;-72
2021/09/11 05:09:00;;;;;;;;;;;17.20;1.00;;;;;;5111610;28;19966;-73
2021/09/11 05:11:26;;;;;;;;;;;17.30;1.00;;;;;;5102217;28;20090;-73
2021/09/11 05:13:51;;;;;;;;;;;17.30;1.00;;;;;;5094716;28;19908;-71
2021/09/11 05:16:17;;;;;;;;;;;17.30;1.00;;;;;;5089759;28;19988;-72
2021/09/11 05:18:42;;;;;;;;;;;17.30;1.00;;;;;;5090714;28;19912;-73
2021/09/11 05:21:08;;;;;;;;;;;17.30;1.00;;;;;;5089744;28;19919;-72
2021/09/11 05:23:34;;;;;;;;;;;17.30;1.00;;;;;;5089041;28;19908;-73
2021/09/11 05:26:00;;;;;;;;;;;17.30;1.00;;;;;;5089591;28;19912;-72
2021/09/11 05:28:25;;;;;;;;;;;17.40;1.00;;;;;;5088607;28;19908;-72
2021/09/11 05:30:51;;;;;;;;;;;17.50;1.00;;;;;;5089034;28;19916;-73
2021/09/11 05:33:16;;;;;;;;;;;17.50;1.00;;;;;;5088420;28;20381;-72
2021/09/11 05:35:41;;;;;;;;;;;17.60;1.00;;;;;;5088347;28;19908;-72
2021/09/11 05:38:07;;;;;;;;;;;17.70;1.00;;;;;;5088213;28;19919;-72
2021/09/11 05:40:32;;;;;;;;;;;17.80;1.00;;;;;;5087588;28;19916;-73
2021/09/11 05:42:58;;;;;;;;;;;17.90;1.00;;;;;;5086990;28;20432;-72
2021/09/11 05:45:23;;;;;;;;;;;17.90;1.00;;;;;;5088037;28;20386;-72
2021/09/11 05:47:49;;;;;;;;;;;18.00;1.00;;;;;;5088208;28;20000;-72
2021/09/11 05:50:14;;;;;;;;;;;18.10;1.00;;;;;;5087252;28;19916;-72
2021/09/11 05:52:40;;;;;;;;;;;18.30;1.00;;;;;;5087315;28;20367;-73
2021/09/11 05:55:06;;;;;;;;;;;18.50;1.00;;;;;;5090227;28;20234;-73
2021/09/11 05:57:31;;;;;;;;;;;18.60;1.00;;;;;;5108735;28;20229;-72
2021/09/11 05:59:57;;;;;;;;;;;18.70;1.00;;;;;;5107736;28;19950;-73
2021/09/11 06:02:23;;;;;;;;;;;18.90;1.00;;;;;;5106152;28;20279;-73
2021/09/11 06:04:49;;;;;;;;;;;19.10;1.00;;;;;;5108006;28;20349;-72
2021/09/11 06:07:15;;;;;;;;;;;19.20;99.90;;;;;;5090690;28;19919;-72
2021/09/11 06:09:40;;;;;;;;;;;19.40;99.90;;;;;;5091588;28;19908;-72
2021/09/11 06:12:10;;;;;;;;;;;19.60;99.90;;;;;;5087703;28;20507;-73
2021/09/11 06:14:36;;;;;;;;;;;20.00;1.00;;;;;;5087234;28;19920;-72
2021/09/11 06:17:01;;;;;;;;;;;20.40;1.00;;;;;;5087884;28;19972;-72
2021/09/11 06:19:27;;;;;;;;;;;20.60;1.00;;;;;;5087157;28;19972;-71
2021/09/11 06:21:52;;;;;;;;;;;20.70;99.90;;;;;;5087754;28;19908;-71
2021/09/11 06:24:17;;;;;;;;;;;20.50;1.00;;;;;;5071781;28;19909;-72
2021/09/11 06:26:43;;;;;;;;;;;20.20;99.90;;;;;;5092264;28;19915;-71
2021/09/11 06:29:08;;;;;;;;;;;20.10;1.00;;;;;;5091982;28;20271;-72
2021/09/11 06:31:34;;;;;;;;;;;20.00;1.00;;;;;;5091223;28;19908;-72
2021/09/11 06:33:59;;;;;;;;;;;19.80;99.90;;;;;;5090590;28;19927;-71
2021/09/11 06:36:25;;;;;;;;;;;19.70;1.00;;;;;;5091584;28;19916;-71
2021/09/11 06:38:50;;;;;;;;;;;19.70;96.90;;;;;;5089276;28;20002;-73
2021/09/11 06:41:16;;;;;;;;;;;19.80;99.90;;;;;;5090316;28;20308;-72
2021/09/11 06:43:41;;;;;;;;;;;19.80;1.00;;;;;;5089286;28;20010;-71
2021/09/11 06:46:07;;;;;;;;;;;19.90;1.00;;;;;;5089667;28;19977;-71
2021/09/11 06:48:33;;;;;;;;;;;20.00;1.00;;;;;;5090341;28;20313;-72
2021/09/11 06:50:58;;;;;;;;;;;20.10;99.90;;;;;;5089488;28;19920;-73
2021/09/11 06:53:24;;;;;;;;;;;20.20;1.00;;;;;;5089589;28;19908;-74
2021/09/11 06:55:50;;;;;;;;;;;20.20;99.90;;;;;;5090551;28;19980;-71
2021/09/11 06:58:16;;;;;;;;;;;20.10;1.00;;;;;;5090811;28;19924;-71
2021/09/11 07:00:41;;;;;;;;;;;20.10;1.00;;;;;;5090414;28;19935;-74
2021/09/11 07:03:07;;;;;;;;;;;20.00;1.00;;;;;;5091088;28;19912;-72
2021/09/11 07:05:33;;;;;;;;;;;20.00;1.00;;;;;;5092289;28;20340;-71
2021/09/11 07:07:58;;;;;;;;;;;20.00;1.00;;;;;;5091944;28;19961;-72
2021/09/11 07:10:24;;;;;;;;;;;20.10;1.00;;;;;;5092090;28;19912;-72
2021/09/11 07:12:49;;;;;;;;;;;20.00;1.00;;;;;;5092057;28;20303;-73
2021/09/11 07:15:15;;;;;;;;;;;20.00;99.90;;;;;;5094341;28;20398;-73
2021/09/11 07:17:41;;;;;;;;;;;20.00;99.90;;;;;;5076433;28;19916;-72
2021/09/11 07:20:07;;;;;;;;;;;20.10;1.00;;;;;;5091787;28;20284;-72
2021/09/11 07:22:32;;;;;;;;;;;20.20;1.00;;;;;;5092391;28;19908;-72
2021/09/11 07:24:58;;;;;;;;;;;20.40;99.90;;;;;;5073366;28;20259;-73
2021/09/11 07:27:23;;;;;;;;;;;20.70;1.00;;;;;;5091195;28;19927;-73
2021/09/11 07:29:49;;;;;;;;;;;20.90;69.10;;;;;;5089635;28;19916;-72
2021/09/11 07:32:14;;;;;;;;;;;21.00;1.00;;;;;;5088779;28;19909;-73
2021/09/11 07:34:41;;;;;;;;;;;21.10;1.00;;;;;;5088743;28;20296;-74
2021/09/11 07:37:06;;;;;;;;;;;21.20;99.90;;;;;;5090272;28;20255;-72
2021/09/11 07:39:32;;;;;;;;;;;21.30;99.90;;;;;;5088936;28;19923;-73
2021/09/11 07:41:57;;;;;;;;;;;21.50;64.80;;;;;;5088927;28;19939;-72
2021/09/11 07:44:23;;;;;;;;;;;21.60;1.00;;;;;;5089477;28;19908;-72
2021/09/11 07:46:48;;;;;;;;;;;21.70;1.00;;;;;;5089628;28;19908;-74
2021/09/11 07:49:14;;;;;;;;;;;21.80;1.00;;;;;;5085910;28;19940;-72
2021/09/11 07:51:39;;;;;;;;;;;22.00;1.00;;;;;;5089386;28;19912;-72
2021/09/11 07:54:05;;;;;;;;;;;22.20;99.90;;;;;;5088241;28;19955;-73
2021/09/11 07:56:30;;;;;;;;;;;22.40;99.90;;;;;;5090934;28;19969;-73
2021/09/11 07:58:56;;;;;;;;;;;22.70;99.90;;;;;;5088187;28;19912;-74
2021/09/11 08:01:21;;;;;;;;;;;22.80;81.20;;;;;;5088724;28;19955;-73
2021/09/11 08:03:47;;;;;;;;;;;22.90;1.00;;;;;;5088484;28;20360;-73
2021/09/11 08:06:12;;;;;;;;;;;22.70;1.00;;;;;;5088703;28;19919;-72
2021/09/11 08:08:38;;;;;;;;;;;22.70;1.00;;;;;;5082305;28;19927;-73
2021/09/11 08:11:04;;;;;;;;;;;22.70;1.00;;;;;;5085023;28;19912;-73
2021/09/11 08:13:29;;;;;;;;;;;22.90;1.00;;;;;;5087490;28;19919;-73
2021/09/11 08:15:55;;;;;;;;;;;23.10;1.00;;;;;;5088925;28;19955;-73
2021/09/11 08:18:20;;;;;;;;;;;23.40;1.00;;;;;;5088801;28;20493;-73
2021/09/11 08:20:46;;;;;;;;;;;23.60;1.00;;;;;;5087112;28;20240;-72
2021/09/11 08:23:11;;;;;;;;;;;23.70;1.00;;;;;;5087167;28;19916;-72
2021/09/11 08:25:37;;;;;;;;;;;23.90;1.00;;;;;;5087783;28;19928;-72
2021/09/11 08:28:02;;;;;;;;;;;24.10;1.00;;;;;;5087643;28;19908;-72
2021/09/11 08:30:28;;;;;;;;;;;24.10;1.00;;;;;;5088508;28;20224;-72
2021/09/11 08:32:53;;;;;;;;;;;24.30;1.00;;;;;;5087353;28;19995;-72
2021/09/11 08:35:19;;;;;;;;;;;24.60;1.00;;;;;;5088232;28;19916;-73
2021/09/11 08:37:45;;;;;;;;;;;24.70;1.00;;;;;;5088786;28;19912;-73
2021/09/11 08:40:11;;;;;;;;;;;24.60;1.00;;;;;;5070132;28;19955;-71
2021/09/11 08:42:36;;;;;;;;;;;24.40;1.00;;;;;;5088464;28;19916;-71
2021/09/11 08:45:02;;;;;;;;;;;24.30;1.00;;;;;;5088962;28;20030;-74
2021/09/11 08:47:28;;;;;;;;;;;24.00;1.00;;;;;;5079335;28;19995;-73
2021/09/11 08:49:53;;;;;;;;;;;24.00;1.00;;;;;;5098312;28;19915;-73
2021/09/11 08:52:19;;;;;;;;;;;24.10;1.00;;;;;;5108533;28;19907;-73
2021/09/11 08:54:45;;;;;;;;;;;23.80;1.00;;;;;;5088934;28;19915;-73
2021/09/11 08:57:18;;;;;;;;;;;23.70;1.00;;;;;;5089649;28;20015;-72
2021/09/11 08:59:43;;;;;;;;;;;23.50;1.00;;;;;;5088620;28;19990;-73
2021/09/11 09:02:09;;;;;;;;;;;23.40;1.00;;;;;;5088098;28;19908;-73
2021/09/11 09:04:45;;;;;;;;;;;23.40;1.00;;;;;;5090112;28;19908;-73
2021/09/11 09:07:11;;;;;;;;;;;23.40;1.00;;;;;;5109583;28;19912;-73
2021/09/11 09:09:40;;;;;;;;;;;23.50;1.00;;;;;;5092711;28;19923;-73
2021/09/11 09:12:13;;;;;;;;;;;23.70;1.00;;;;;;5080717;28;19916;-73
2021/09/11 09:14:38;;;;;;;;;;;23.90;1.00;;;;;;5084655;28;20023;-72
2021/09/11 09:17:09;;;;;;;;;;;23.90;1.00;;;;;;5088210;28;20102;-73
2021/09/11 09:19:34;;;;;;;;;;;23.60;1.00;;;;;;5087336;28;20391;-72
2021/09/11 09:22:04;;;;;;;;;;;23.30;1.00;;;;;;5087800;28;20010;-73
2021/09/11 09:24:31;;;;;;;;;;;23.40;1.00;;;;;;5088317;28;19918;-72
2021/09/11 09:26:58;;;;;;;;;;;23.70;1.00;;;;;;5088151;28;19923;-74
2021/09/11 09:29:24;;;;;;;;;;;23.90;1.00;;;;;;5069523;28;19955;-72
2021/09/11 09:31:51;;;;;;;;;;;24.10;1.00;;;;;;5069452;28;19932;-73
2021/09/11 09:34:36;;;;;;;;;;;24.40;1.00;;;;;;5087815;28;20186;-73
2021/09/11 09:37:03;;;;;;;;;;;24.70;1.00;;;;;;5088897;28;19916;-72
2021/09/11 09:39:28;;;;;;;;;;;25.10;1.00;;;;;;5087595;28;19957;-73
2021/09/11 09:42:00;;;;;;;;;;;25.40;1.00;;;;;;5096210;28;20177;-73
2021/09/11 09:44:25;;;;;;;;;;;26.00;1.00;;;;;;5107237;28;19949;-73
2021/09/11 09:46:51;;;;;;;;;;;27.40;99.90;;;;;;5108936;28;19968;-74
2021/09/11 09:49:21;;;;;;;;;;;29.60;99.90;;;;;;5107579;28;19939;-73
2021/09/11 09:51:47;;;;;;;;;;;32.20;99.90;;;;;;5108000;28;19931;-73
2021/09/11 09:54:13;;;;;;;;;;;32.70;99.90;;;;;;5108963;28;19919;-72
2021/09/11 09:56:40;;;;;;;;;;;32.90;99.90;;;;;;5108409;28;19923;-72
2021/09/11 09:59:06;;;;;;;;;;;32.80;99.90;;;;;;5109000;28;19915;-71
2021/09/11 10:01:32;;;;;;;;;;;34.20;99.90;;;;;;5109323;28;20281;-71
2021/09/11 10:03:57;;;;;;;;;;;35.40;99.90;;;;;;5107133;28;19926;-74
2021/09/11 10:06:32;;;;;;;;;;;35.90;99.90;;;;;;5102684;28;19919;-72
2021/09/11 10:09:05;;;;;;;;;;;35.80;99.90;;;;;;5088533;28;20307;-72
2021/09/11 10:11:49;;;;;;;;;;;36.30;99.90;;;;;;5088533;28;19908;-72
2021/09/11 10:14:16;;;;;;;;;;;36.70;99.90;;;;;;5087425;28;19951;-72
2021/09/11 10:16:43;;;;;;;;;;;35.70;99.90;;;;;;5069854;28;19919;-71
2021/09/11 10:19:16;;;;;;;;;;;35.20;99.90;;;;;;5086880;28;20360;-71
2021/09/11 10:21:41;;;;;;;;;;;35.60;99.90;;;;;;5088324;28;19965;-71
2021/09/11 10:24:07;;;;;;;;;;;35.10;99.90;;;;;;5087534;28;19912;-72
2021/09/11 10:26:41;;;;;;;;;;;35.00;99.90;;;;;;5088505;28;19994;-71
2021/09/11 10:29:25;;;;;;;;;;;35.70;99.90;;;;;;5077985;28;19913;-72
2021/09/11 10:31:54;;;;;;;;;;;34.80;99.90;;;;;;5067238;28;20285;-72
2021/09/11 10:34:40;;;;;;;;;;;35.40;99.90;;;;;;5067393;28;19908;-71
2021/09/11 10:37:05;;;;;;;;;;;35.90;99.90;;;;;;5067868;28;20384;-71
2021/09/11 10:39:32;;;;;;;;;;;35.50;99.90;;;;;;5068352;28;19916;-71
2021/09/11 10:42:04;;;;;;;;;;;35.00;99.90;;;;;;5084955;28;19908;-70
2021/09/11 10:44:30;;;;;;;;;;;34.60;99.90;;;;;;5108556;28;19961;-70
2021/09/11 10:46:56;;;;;;;;;;;35.00;99.90;;;;;;5108193;28;19915;-76
2021/09/11 10:49:25;;;;;;;;;;;34.70;99.90;;;;;;5101740;28;19938;-73
2021/09/11 10:52:02;;;;;;;;;;;34.60;99.90;;;;;;5086807;28;19912;-74
2021/09/11 10:54:30;;;;;;;;;;;33.80;99.90;;;;;;5088022;28;19947;-72
2021/09/11 10:56:58;;;;;;;;;;;31.90;99.90;;;;;;5088453;28;20007;-72
2021/09/11 10:59:31;;;;;;;;;;;31.00;99.90;;;;;;5087878;28;19916;-72
2021/09/11 11:02:02;;;;;;;;;;;30.40;99.90;;;;;;5069557;28;19920;-75
2021/09/11 11:04:38;;;;;;;;;;;29.80;99.90;;;;;;5069585;28;19914;-73
2021/09/11 11:07:08;;;;;;;;;;;29.20;99.90;;;;;;5088763;28;20368;-74
2021/09/11 11:09:45;;;;;;;;;;;29.10;99.90;;;;;;5069615;28;19909;-72
2021/09/11 11:12:11;;;;;;;;;;;28.80;99.90;;;;;;5052370;28;19909;-72
2021/09/11 11:14:40;;;;;;;;;;;28.60;99.90;;;;;;5087655;28;20006;-72
2021/09/11 11:17:05;;;;;;;;;;;28.30;99.90;;;;;;5091137;28;19912;-73
2021/09/11 11:19:32;;;;;;;;;;;27.80;99.90;;;;;;5091830;28;19912;-75
2021/09/11 11:22:08;;;;;;;;;;;27.10;99.90;;;;;;5091988;28;20015;-73
2021/09/11 11:24:35;;;;;;;;;;;26.60;99.90;;;;;;5092319;28;19952;-74
2021/09/11 11:27:02;;;;;;;;;;;26.40;99.90;;;;;;5092198;28;20376;-73
2021/09/11 11:29:28;;;;;;;;;;;25.80;99.90;;;;;;5080375;28;19921;-75
2021/09/11 11:31:54;;;;;;;;;;;25.00;99.90;;;;;;5070956;28;19908;-74
2021/09/11 11:34:20;;;;;;;;;;;23.30;99.90;;;;;;5070960;28;19919;-75
2021/09/11 11:36:46;;;;;;;;;;;22.10;1.00;;;;;;5072164;28;19920;-74
2021/09/11 11:39:41;;;;;;;;;;;21.90;99.90;;;;;;5072371;28;19916;-74
2021/09/11 11:42:07;;;;;;;;;;;21.80;1.00;;;;;;5072558;28;19920;-74
2021/09/11 11:44:36;;;;;;;;;;;22.50;99.90;;;;;;5090545;28;19951;-73
2021/09/11 11:47:12;;;;;;;;;;;24.00;1.00;;;;;;5091306;28;19961;-74
2021/09/11 11:49:38;;;;;;;;;;;25.70;99.90;;;;;;5087989;28;19920;-74
2021/09/11 11:52:06;;;;;;;;;;;27.60;99.90;;;;;;5072344;28;19998;-74
2021/09/11 11:54:32;;;;;;;;;;;28.20;99.90;;;;;;5090960;28;19951;-74
2021/09/11 11:57:05;;;;;;;;;;;29.10;99.90;;;;;;5091942;28;20010;-75
2021/09/11 11:59:30;;;;;;;;;;;30.30;99.90;;;;;;5089828;28;19967;-72
2021/09/11 12:01:56;;;;;;;;;;;30.60;99.90;;;;;;5089730;28;19955;-75
2021/09/11 12:04:22;;;;;;;;;;;30.50;99.90;;;;;;5080607;28;19979;-74
2021/09/11 12:06:48;;;;;;;;;;;29.50;99.90;;;;;;5091243;28;19908;-74
2021/09/11 12:09:14;;;;;;;;;;;29.30;99.90;;;;;;5091214;28;20269;-74
2021/09/11 12:11:40;;;;;;;;;;;28.90;99.90;;;;;;5091332;28;19908;-74
2021/09/11 12:14:05;;;;;;;;;;;28.60;99.90;;;;;;5089440;28;19933;-74
2021/09/11 12:16:31;;;;;;;;;;;28.30;99.90;;;;;;5090716;28;19908;-74
2021/09/11 12:19:10;;;;;;;;;;;28.30;99.90;;;;;;5090085;28;20411;-73
2021/09/11 12:21:36;;;;;;;;;;;28.10;99.90;;;;;;5090323;28;19953;-74
2021/09/11 12:24:02;;;;;;;;;;;28.00;99.90;;;;;;5090052;28;20339;-74
2021/09/11 12:26:31;;;;;;;;;;;27.80;99.90;;;;;;5091287;28;19911;-74
2021/09/11 12:29:03;;;;;;;;;;;27.60;99.90;;;;;;5090273;28;20129;-74
2021/09/11 12:31:32;;;;;;;;;;;27.50;99.90;;;;;;5071548;28;19908;-74
2021/09/11 12:34:04;;;;;;;;;;;27.30;99.90;;;;;;5081384;28;19946;-73
2021/09/11 12:36:30;;;;;;;;;;;27.30;99.90;;;;;;5091319;28;19908;-73
2021/09/11 12:38:57;;;;;;;;;;;27.60;99.90;;;;;;5090496;28;19915;-74
2021/09/11 12:41:23;;;;;;;;;;;28.20;99.90;;;;;;5091765;28;20336;-73
2021/09/11 12:43:49;;;;;;;;;;;28.10;99.90;;;;;;5089375;28;19912;-74
2021/09/11 12:46:28;;;;;;;;;;;28.20;99.90;;;;;;5089912;28;20551;-75
2021/09/11 12:48:53;;;;;;;;;;;27.80;99.90;;;;;;5089032;28;19908;-72
2021/09/11 12:51:19;;;;;;;;;;;27.40;99.90;;;;;;5103436;22;19923;-71
2021/09/11 12:53:44;;;;;;;;;;;27.20;99.90;;;;;;5101679;28;19998;-73
2021/09/11 12:56:10;;;;;;;;;;;26.50;99.90;;;;;;5109438;28;19976;-71
2021/09/11 12:58:35;;;;;;;;;;;25.80;99.90;;;;;;5110010;28;19951;-72
2021/09/11 13:01:01;;;;;;;;;;;25.00;99.90;;;;;;5090965;28;20316;-69
2021/09/11 13:03:26;;;;;;;;;;;25.30;99.90;;;;;;5108979;28;20435;-72
2021/09/11 13:05:55;;;;;;;;;;;25.70;99.90;;;;;;5108871;28;19914;-72
2021/09/11 13:08:20;;;;;;;;;;;26.00;99.90;;;;;;5109968;28;19988;-72
2021/09/11 13:10:47;;;;;;;;;;;26.00;99.90;;;;;;5109805;28;20348;-72
2021/09/11 13:13:13;;;;;;;;;;;26.20;99.90;;;;;;5108175;28;19912;-72
2021/09/11 13:15:38;;;;;;;;;;;26.50;99.90;;;;;;5109255;28;19973;-72
2021/09/11 13:18:04;;;;;;;;;;;26.30;99.90;;;;;;5109239;28;19912;-72
2021/09/11 13:20:29;;;;;;;;;;;26.10;99.90;;;;;;5108728;28;19918;-72
2021/09/11 13:22:55;;;;;;;;;;;26.00;99.90;;;;;;5108510;28;19916;-72
2021/09/11 13:25:20;;;;;;;;;;;26.10;99.90;;;;;;5109337;28;19915;-72
2021/09/11 13:27:47;;;;;;;;;;;26.20;99.90;;;;;;5109446;28;19912;-72
2021/09/11 13:30:13;;;;;;;;;;;26.10;99.90;;;;;;5109196;28;19943;-71
2021/09/11 13:32:38;;;;;;;;;;;25.90;99.90;;;;;;5107995;28;20332;-72
2021/09/11 13:35:04;;;;;;;;;;;25.40;99.90;;;;;;5108234;28;19927;-72
2021/09/11 13:37:29;;;;;;;;;;;25.40;99.90;;;;;;5109463;28;19939;-72
2021/09/11 13:39:55;;;;;;;;;;;25.50;99.90;;;;;;5109332;28;19972;-72
2021/09/11 13:42:20;;;;;;;;;;;25.40;99.90;;;;;;5111417;27;20316;-71
2021/09/11 13:44:48;;;;;;;;;;;24.60;99.90;;;;;;5129051;27;19907;-69
2021/09/11 13:47:16;;;;;;;;;;;24.20;99.90;;;;;;5129230;27;19907;-72
2021/09/11 13:49:42;;;;;;;;;;;24.10;99.90;;;;;;5120402;27;20398;-71
2021/09/11 13:52:08;;;;;;;;;;;24.00;99.90;;;;;;5108752;28;19915;-71
2021/09/11 13:54:33;;;;;;;;;;;24.00;99.90;;;;;;5108497;28;20510;-72
2021/09/11 13:56:59;;;;;;;;;;;23.80;99.90;;;;;;5109400;28;19911;-70
2021/09/11 13:59:24;;;;;;;;;;;23.80;99.90;;;;;;5109163;28;19980;-70
2021/09/11 14:01:49;;;;;;;;;;;23.70;99.90;;;;;;5098411;28;20312;-70
2021/09/11 14:04:15;;;;;;;;;;;23.70;99.90;;;;;;5095776;28;19924;-70
2021/09/11 14:06:41;;;;;;;;;;;23.60;99.90;;;;;;5097142;28;20343;-70
2021/09/11 14:09:16;;;;;;;;;;;23.60;99.90;;;;;;5108847;28;19908;-70
2021/09/11 14:11:41;;;;;;;;;;;23.60;99.90;;;;;;5096386;28;19947;-71
2021/09/11 14:14:07;;;;;;;;;;;23.50;1.00;;;;;;5106758;28;19955;-71
2021/09/11 14:16:32;;;;;;;;;;;23.50;1.00;;;;;;5107113;28;19912;-70
2021/09/11 14:18:58;;;;;;;;;;;23.50;1.00;;;;;;5108741;28;20287;-70
2021/09/11 14:21:24;;;;;;;;;;;23.50;1.00;;;;;;5108488;28;19908;-71